Main page
METAR-TAF:

Airports :

Tunis, Tunisia

Tunis–Carthage International Airport

latitude: 36-50N, longitude: 010-14E, elevation: 3 m

Current weather observation

The report was made 27 minutes ago, at 20:30 UTC
Wind 6 kt from the West
Temperature 13°C
Humidity 72%
Pressure 1026 hPa
Visibility 10 km or more
Few clouds at a height of 2600 ft

METAR: DTTA 082030Z 26006KT 9999 FEW026 13/08 Q1026 NOSIG

Time: 21:57 (20:57 UTC)

Forecast

The report was made 3 hours and 27 minutes ago, at 17:30 UTC
Forecast valid from 08 at 18 UTC to 09 at 18 UTC
Wind 10 kt from the West
Visibility 10 km or more
Few clouds at a height of 2600 ft
Becoming
from 08 at 22 UTC to 08 at 24 UTC
Wind 6 kt from the West
Few clouds at a height of 2600 ft
Becoming
from 09 at 15 UTC to 09 at 17 UTC
Wind 17 kt from the Southwest
Visibility 10 km or more
no clouds below 1500 m and no cumulonimbus

TAF: DTTA 081730Z 0818/0918 27010KT 9999 FEW026 BECMG 0822/0824 26006KT FEW026 BECMG 0915/0917 22017KT CAVOK

METAR-TAF

Weather observations and forecasts of more than 4000 airports (METAR and TAF reports).

The available stations are represented by yellow and red dots on the map.

Hover mouse over dot to see the name of the station.

Then click to see weather observations and forecasts.

To change the map : click on the green buttons with a black cross to zoom in, on the green button with a dash to zoom out, or on the green arrows for adjacent maps.


METAR-TAF: